createdAt,value
2023-03-22T00:02:45.372Z,71.63
2023-03-22T00:06:45.039Z,72.40
2023-03-22T00:10:44.809Z,70.78
2023-03-22T00:14:44.422Z,69.75
2023-03-22T00:18:44.104Z,70.08
2023-03-22T00:22:43.792Z,68.31
2023-03-22T00:26:43.488Z,70.48
2023-03-22T00:30:43.193Z,69.12
2023-03-22T00:34:42.901Z,68.81
2023-03-22T00:38:44.058Z,69.45
2023-03-22T00:42:42.296Z,70.33
2023-03-22T00:46:42.005Z,66.60
2023-03-22T00:50:41.678Z,67.80
2023-03-22T00:54:41.384Z,66.19
2023-03-22T00:58:41.101Z,66.89
2023-03-22T01:02:40.786Z,64.48
2023-03-22T01:06:40.511Z,64.34
2023-03-22T01:10:40.474Z,64.78
2023-03-22T01:14:39.861Z,63.50
2023-03-22T01:18:39.574Z,62.93
2023-03-22T01:22:39.271Z,64.43
2023-03-22T01:26:38.985Z,63.91
2023-03-22T01:30:39.012Z,61.94
2023-03-22T01:34:38.388Z,61.44
2023-03-22T01:38:38.103Z,60.28
2023-03-22T01:42:37.803Z,61.22
2023-03-22T01:46:37.568Z,62.85
2023-03-22T01:50:37.443Z,61.29
2023-03-22T01:54:37.006Z,61.77
2023-03-22T01:58:37.056Z,61.24
2023-03-22T02:02:36.516Z,59.20
2023-03-22T02:06:36.125Z,58.28
2023-03-22T02:10:35.861Z,59.04
2023-03-22T02:14:35.582Z,56.93
2023-03-22T02:18:35.327Z,55.70
2023-03-22T02:22:35.046Z,57.29
2023-03-22T02:26:34.774Z,55.42
2023-03-22T02:30:34.475Z,56.06
2023-03-22T02:34:34.560Z,53.65
2023-03-22T02:38:33.921Z,55.45
2023-03-22T02:42:33.633Z,54.24
2023-03-22T02:46:33.440Z,52.29
2023-03-22T02:50:33.172Z,50.16
2023-03-22T02:54:32.828Z,55.41
2023-03-22T02:58:32.560Z,53.24
2023-03-22T03:02:32.299Z,52.75
2023-03-22T03:06:32.024Z,51.87
2023-03-22T03:10:31.729Z,52.01
2023-03-22T03:14:31.447Z,52.04
2023-03-22T03:18:31.178Z,50.00
2023-03-22T03:22:30.919Z,48.33
2023-03-22T03:26:30.661Z,48.66
2023-03-22T03:30:30.444Z,49.85
2023-03-22T03:34:30.574Z,46.23
2023-03-22T03:38:29.920Z,50.03
2023-03-22T03:42:29.666Z,49.57
2023-03-22T03:46:29.477Z,46.60
2023-03-22T03:50:30.074Z,42.59
2023-03-22T03:54:28.937Z,46.87
2023-03-22T03:58:28.691Z,47.67
2023-03-22T04:02:28.510Z,47.06
2023-03-22T04:06:28.113Z,49.16
2023-03-22T04:10:27.817Z,47.45
2023-03-22T04:14:27.442Z,48.91
2023-03-22T04:18:27.091Z,45.16
2023-03-22T04:22:26.768Z,47.50
2023-03-22T04:26:26.928Z,46.30
2023-03-22T04:30:25.979Z,44.26
2023-03-22T04:34:26.099Z,44.12
2023-03-22T04:38:25.361Z,38.42
2023-03-22T04:42:25.039Z,43.41
2023-03-22T04:46:24.886Z,41.36
2023-03-22T04:50:24.606Z,40.47
2023-03-22T04:54:24.089Z,40.50
2023-03-22T04:58:23.841Z,42.33
2023-03-22T05:02:23.636Z,40.97
2023-03-22T05:06:23.314Z,37.70
2023-03-22T05:10:23.008Z,40.30
2023-03-22T05:14:22.763Z,38.69
2023-03-22T05:18:22.474Z,40.37
2023-03-22T05:22:22.232Z,38.92
2023-03-22T05:26:22.002Z,39.86
2023-03-22T05:30:21.905Z,33.51
2023-03-22T05:34:21.613Z,36.12
2023-03-22T05:38:21.425Z,35.48
2023-03-22T05:42:21.165Z,35.67
2023-03-22T05:46:20.885Z,35.16
2023-03-22T05:50:20.553Z,37.22
2023-03-22T05:54:20.290Z,36.08
2023-03-22T05:58:20.104Z,33.56
2023-03-22T06:02:19.932Z,33.80
2023-03-22T06:06:19.630Z,35.66
2023-03-22T06:10:19.417Z,30.54
2023-03-22T06:14:19.218Z,32.84
2023-03-22T06:18:19.032Z,29.14
2023-03-22T06:22:18.881Z,29.51
2023-03-22T06:26:19.162Z,32.03
2023-03-22T06:30:18.635Z,49.88
2023-03-22T06:34:18.435Z,79.24
2023-03-22T06:38:18.046Z,95.37
2023-03-22T06:42:17.623Z,132.09
2023-03-22T06:46:17.317Z,157.37
2023-03-22T06:50:16.759Z,196.01
2023-03-22T06:54:16.330Z,221.23
2023-03-22T06:58:15.881Z,245.35
2023-03-22T07:02:15.420Z,250.73
2023-03-22T07:06:14.997Z,250.00
2023-03-22T07:10:14.519Z,250.51
2023-03-22T07:14:14.198Z,249.23
2023-03-22T07:18:13.632Z,250.31
2023-03-22T07:22:13.677Z,245.78
2023-03-22T07:26:12.727Z,249.83
2023-03-22T07:30:12.672Z,194.27
2023-03-22T07:34:12.663Z,127.46
2023-03-22T07:38:11.489Z,76.80
2023-03-22T07:42:11.195Z,63.24
2023-03-22T07:46:11.107Z,53.82
2023-03-22T07:50:10.874Z,52.64
2023-03-22T07:54:12.631Z,51.91
2023-03-22T07:58:10.217Z,51.61
2023-03-22T08:02:09.817Z,56.02
2023-03-22T08:06:09.329Z,57.80
2023-03-22T08:10:08.911Z,63.31
2023-03-22T08:14:08.448Z,67.19
2023-03-22T08:18:07.991Z,72.78
2023-03-22T08:22:07.835Z,60.67
2023-03-22T08:26:07.192Z,61.77
2023-03-22T08:30:06.762Z,64.72
2023-03-22T08:34:06.235Z,75.42
2023-03-22T08:38:05.767Z,90.01
2023-03-22T08:42:05.283Z,100.85
2023-03-22T08:46:04.840Z,112.41
2023-03-22T08:50:04.393Z,126.23
2023-03-22T08:54:03.948Z,135.44
2023-03-22T08:58:03.515Z,140.95
2023-03-22T09:02:03.186Z,145.35
2023-03-22T09:06:02.879Z,152.89
2023-03-22T09:10:02.665Z,157.10
2023-03-22T09:14:02.440Z,151.76
2023-03-22T09:18:02.251Z,121.70
2023-03-22T09:22:02.012Z,72.33
2023-03-22T09:26:01.624Z,49.69
2023-03-22T09:30:02.144Z,25.13
2023-03-22T09:34:00.755Z,40.03
2023-03-22T09:38:00.469Z,56.42
2023-03-22T09:42:00.051Z,69.43
2023-03-22T09:45:59.540Z,87.08
2023-03-22T09:49:59.221Z,97.91
2023-03-22T09:53:58.492Z,111.30
2023-03-22T09:57:58.014Z,127.54
2023-03-22T10:01:57.753Z,140.23
2023-03-22T10:05:57.272Z,145.12
2023-03-22T10:09:56.550Z,151.33
2023-03-22T10:13:56.065Z,149.43
2023-03-22T10:17:55.583Z,137.75
2023-03-22T10:21:55.097Z,122.46
2023-03-22T10:25:54.789Z,120.65
2023-03-22T10:29:54.345Z,118.37
2023-03-22T10:33:54.245Z,121.50
2023-03-22T10:37:53.892Z,120.17
2023-03-22T10:41:54.943Z,118.41
2023-03-22T10:45:53.000Z,119.20
2023-03-22T10:49:52.567Z,117.12
2023-03-22T10:53:52.077Z,114.53
2023-03-22T10:57:51.618Z,115.32
2023-03-22T11:01:51.376Z,115.92
2023-03-22T11:05:50.681Z,115.39
2023-03-22T11:09:50.213Z,112.74
2023-03-22T11:13:49.745Z,110.61
2023-03-22T11:17:49.265Z,109.34
2023-03-22T11:21:48.823Z,111.32
2023-03-22T11:25:48.312Z,107.92
2023-03-22T11:29:47.841Z,109.61
2023-03-22T11:33:48.267Z,106.17
2023-03-22T11:37:47.302Z,107.01
2023-03-22T11:41:46.439Z,105.98
2023-03-22T11:45:46.738Z,103.83
2023-03-22T11:49:45.497Z,104.59
2023-03-22T11:53:45.002Z,105.53
2023-03-22T11:57:44.502Z,105.23
2023-03-22T12:01:44.018Z,103.90
2023-03-22T12:05:43.963Z,105.22
2023-03-22T12:09:43.122Z,104.75
2023-03-22T12:13:42.820Z,104.65
2023-03-22T12:17:42.582Z,104.02
2023-03-22T12:21:42.784Z,104.00
2023-03-22T12:25:42.323Z,106.71
2023-03-22T12:29:41.716Z,104.38
2023-03-22T12:33:41.807Z,106.20
2023-03-22T12:37:41.221Z,103.60
2023-03-22T12:41:40.935Z,104.06
2023-03-22T12:45:40.811Z,104.62
2023-03-22T12:49:40.414Z,101.59
2023-03-22T12:53:40.141Z,101.75
2023-03-22T12:57:39.878Z,101.82
2023-03-22T13:01:39.780Z,101.05
2023-03-22T13:05:39.705Z,100.40
2023-03-22T13:09:39.140Z,101.68
2023-03-22T13:13:38.912Z,100.55
2023-03-22T13:17:38.684Z,99.48
2023-03-22T13:21:38.450Z,100.33
2023-03-22T13:25:38.529Z,100.83
2023-03-22T13:29:37.992Z,99.93
2023-03-22T13:33:37.783Z,99.32
2023-03-22T13:37:37.589Z,100.37
2023-03-22T13:41:37.354Z,98.14
2023-03-22T13:45:37.177Z,98.06
2023-03-22T13:49:36.933Z,94.52
2023-03-22T13:53:36.741Z,94.45
2023-03-22T13:57:36.532Z,92.44
2023-03-22T14:01:36.380Z,92.20
2023-03-22T14:05:36.120Z,90.57
2023-03-22T14:09:35.891Z,92.05
2023-03-22T14:13:35.663Z,88.68
2023-03-22T14:17:35.639Z,87.25
2023-03-22T14:21:35.173Z,86.31
2023-03-22T14:46:25.399Z,25.00
2023-03-22T14:50:25.358Z,26.96
2023-03-22T14:54:25.311Z,29.42
2023-03-22T14:58:25.282Z,27.79
2023-03-22T15:02:25.248Z,30.25
2023-03-22T15:06:25.178Z,27.38
2023-03-22T15:10:25.210Z,26.22
2023-03-22T15:14:25.100Z,30.56
2023-03-22T15:18:25.107Z,29.03
2023-03-22T15:22:25.304Z,25.70
2023-03-22T15:26:25.652Z,30.85
2023-03-22T15:30:25.693Z,26.33
2023-03-22T15:34:25.896Z,33.52
2023-03-22T15:38:32.436Z,33.11
2023-03-22T15:42:27.038Z,33.97
2023-03-22T15:46:25.963Z,33.53
2023-03-22T15:50:26.106Z,33.15
2023-03-22T15:54:26.047Z,30.19
2023-03-22T15:58:25.981Z,35.00
2023-03-22T16:02:25.892Z,35.56
2023-03-22T16:06:25.828Z,34.31
2023-03-22T16:10:25.740Z,33.73
2023-03-22T16:14:25.687Z,34.90
2023-03-22T16:18:25.680Z,34.56
2023-03-22T16:22:25.670Z,34.03
2023-03-22T16:26:25.487Z,35.69
2023-03-22T16:30:25.522Z,33.24
2023-03-22T16:34:25.460Z,31.69
2023-03-22T16:38:25.375Z,34.15
2023-03-22T16:42:25.299Z,31.52
2023-03-22T16:46:25.282Z,31.65
2023-03-22T16:50:25.228Z,33.96
2023-03-22T16:54:25.115Z,31.05
2023-03-22T16:58:25.030Z,33.72
2023-03-22T17:02:24.968Z,25.00
2023-03-22T17:06:24.912Z,31.71
2023-03-22T17:10:25.027Z,31.36
2023-03-22T17:14:24.976Z,32.33
2023-03-22T17:18:24.873Z,33.39
2023-03-22T17:22:24.800Z,31.30
2023-03-22T17:26:24.652Z,31.62
2023-03-22T17:30:24.554Z,29.87
2023-03-22T17:34:24.701Z,27.97
2023-03-22T17:38:31.712Z,29.87
2023-03-22T17:42:25.221Z,31.00
2023-03-22T17:46:48.938Z,28.72
2023-03-22T17:50:25.012Z,30.90
2023-03-22T17:54:56.907Z,28.93
2023-03-22T18:02:27.631Z,30.25
2023-03-22T18:06:23.706Z,27.47
2023-03-22T18:10:23.567Z,28.30
2023-03-22T18:14:32.566Z,27.78
2023-03-22T18:18:24.408Z,28.53
2023-03-22T18:22:23.312Z,26.98
2023-03-22T18:26:28.756Z,27.31
2023-03-22T18:30:24.192Z,28.89
2023-03-22T18:34:23.077Z,28.37
2023-03-22T18:38:50.907Z,28.90
2023-03-22T18:42:33.416Z,27.16
2023-03-22T18:46:23.852Z,30.29
2023-03-22T18:50:22.696Z,30.72
2023-03-22T18:54:22.584Z,26.47
2023-03-22T18:58:22.469Z,26.69
2023-03-22T19:02:38.452Z,31.38
2023-03-22T19:06:23.279Z,29.02
2023-03-22T19:10:22.180Z,28.64
2023-03-22T19:15:05.323Z,26.88
2023-03-22T19:18:22.982Z,29.61
2023-03-22T19:22:21.882Z,26.35
2023-03-22T19:26:22.257Z,27.49
2023-03-22T19:30:21.717Z,30.51
2023-03-22T19:34:23.318Z,28.66
2023-03-22T19:38:21.593Z,27.79
2023-03-22T19:42:21.589Z,32.68
2023-03-22T19:46:21.570Z,31.11
2023-03-22T19:50:21.480Z,30.70
2023-03-22T19:58:21.341Z,30.08
2023-03-22T20:02:21.232Z,28.21
2023-03-22T20:06:21.130Z,27.28
2023-03-22T20:10:21.034Z,30.91
2023-03-22T20:14:20.920Z,30.00
2023-03-22T20:18:21.282Z,27.61
2023-03-22T20:22:20.717Z,30.34
2023-03-22T20:26:20.614Z,26.06
2023-03-22T20:30:20.830Z,29.69
2023-03-22T20:34:20.441Z,32.08
2023-03-22T20:38:20.345Z,26.65
2023-03-22T20:42:20.779Z,28.06
2023-03-22T20:46:20.176Z,29.67
2023-03-22T20:50:20.077Z,30.58
2023-03-22T20:54:21.070Z,30.75
2023-03-22T20:58:19.878Z,29.39
2023-03-22T21:02:19.809Z,27.15
2023-03-22T21:06:19.730Z,29.34
2023-03-22T21:10:19.673Z,31.13
2023-03-22T21:14:19.607Z,29.41
2023-03-22T21:18:19.568Z,28.18
2023-03-22T21:22:19.485Z,30.15
2023-03-22T21:26:19.464Z,30.17
2023-03-22T21:30:19.452Z,25.66
2023-03-22T21:34:19.398Z,30.43
2023-03-22T21:38:19.356Z,31.41
2023-03-22T21:42:19.327Z,28.26
2023-03-22T21:46:19.820Z,27.37
2023-03-22T21:50:19.197Z,28.72
2023-03-22T21:54:19.120Z,31.52
2023-03-22T21:58:19.037Z,28.92
2023-03-22T22:30:18.820Z,29.40
2023-03-22T22:54:18.832Z,27.77
